Time;durP1;ratioP1;P1;durP2;ratioP2;P2;SDS_P1;SDS_P2;PMS_P1;PMS_P2;Temp;Humidity;BMP_temperature;BMP_pressure;BME280_temperature;BME280_humidity;BME280_pressure;Samples;Min_cycle;Max_cycle;Signal;HPM_P1;HPM_P2
2022/06/07 00:01:30;;;;;;;;;;;24.20;99.90;;;;;;5088637;28;19916;-71
2022/06/07 00:03:56;;;;;;;;;;;24.20;99.90;;;;;;5067765;28;20003;-71
2022/06/07 00:06:21;;;;;;;;;;;24.20;99.90;;;;;;5065074;28;20285;-69
2022/06/07 00:08:47;;;;;;;;;;;24.10;99.90;;;;;;5065794;28;19935;-72
2022/06/07 00:11:13;;;;;;;;;;;24.10;99.90;;;;;;5065187;28;19913;-69
2022/06/07 00:13:38;;;;;;;;;;;24.10;99.90;;;;;;5090033;28;19916;-71
2022/06/07 00:16:04;;;;;;;;;;;24.10;99.90;;;;;;5073563;28;19983;-70
2022/06/07 00:18:29;;;;;;;;;;;24.10;99.90;;;;;;5068545;28;19993;-71
2022/06/07 00:20:55;;;;;;;;;;;24.10;99.90;;;;;;5075205;28;19916;-71
2022/06/07 00:23:21;;;;;;;;;;;24.10;99.90;;;;;;5087097;28;19924;-71
2022/06/07 00:25:48;;;;;;;;;;;24.10;99.90;;;;;;5061473;28;19909;-69
2022/06/07 00:28:15;;;;;;;;;;;24.00;99.90;;;;;;5084940;28;20346;-71
2022/06/07 00:30:40;;;;;;;;;;;24.00;99.90;;;;;;5069919;28;19912;-72
2022/06/07 00:33:06;;;;;;;;;;;23.90;99.90;;;;;;5084621;28;19916;-71
2022/06/07 00:35:32;;;;;;;;;;;23.90;99.90;;;;;;5070483;28;19908;-71
2022/06/07 00:37:58;;;;;;;;;;;23.90;99.90;;;;;;5060953;28;19913;-71
2022/06/07 00:40:24;;;;;;;;;;;24.00;99.90;;;;;;5064711;28;19912;-71
2022/06/07 00:42:49;;;;;;;;;;;24.00;99.90;;;;;;5067032;28;19935;-71
2022/06/07 00:45:19;;;;;;;;;;;24.00;99.90;;;;;;5082319;28;20331;-72
2022/06/07 00:47:47;;;;;;;;;;;23.90;99.90;;;;;;5064602;28;19916;-72
2022/06/07 00:50:31;;;;;;;;;;;23.90;99.90;;;;;;5064619;28;20041;-72
2022/06/07 00:52:59;;;;;;;;;;;23.90;99.90;;;;;;5074167;28;20351;-72
2022/06/07 00:55:25;;;;;;;;;;;23.90;99.90;;;;;;5069077;28;19912;-71
2022/06/07 00:57:52;;;;;;;;;;;23.80;99.90;;;;;;5062694;28;20362;-70
2022/06/07 01:00:19;;;;;;;;;;;23.70;99.90;;;;;;5065899;28;19935;-70
2022/06/07 01:02:45;;;;;;;;;;;23.60;99.90;;;;;;5070168;28;20385;-70
2022/06/07 01:05:10;;;;;;;;;;;23.40;99.90;;;;;;5072157;28;19999;-70
2022/06/07 01:13:04;;;;;;;;;;;23.20;99.90;;;;;;5078424;28;20399;-71
2022/06/07 01:15:30;;;;;;;;;;;23.20;99.90;;;;;;5062387;28;19920;-71
2022/06/07 01:17:56;;;;;;;;;;;23.30;99.90;;;;;;5068027;28;19913;-71
2022/06/07 01:20:22;;;;;;;;;;;23.50;99.90;;;;;;5074175;28;19927;-73
2022/06/07 01:22:48;;;;;;;;;;;23.70;99.90;;;;;;5080011;28;19920;-71
2022/06/07 01:25:13;;;;;;;;;;;23.80;99.90;;;;;;5059546;28;19912;-70
2022/06/07 01:27:39;;;;;;;;;;;23.90;99.90;;;;;;5066020;28;20441;-71
2022/06/07 01:30:05;;;;;;;;;;;24.00;99.90;;;;;;5067271;28;20145;-72
2022/06/07 01:32:31;;;;;;;;;;;24.00;99.90;;;;;;5090922;28;19923;-71
2022/06/07 01:34:57;;;;;;;;;;;23.90;99.90;;;;;;5066155;28;19912;-73
2022/06/07 01:37:23;;;;;;;;;;;23.90;99.90;;;;;;5083803;28;19952;-74
2022/06/07 01:42:33;;;;;;;;;;;24.00;99.90;;;;;;5089255;28;20367;-72
2022/06/07 01:44:59;;;;;;;;;;;23.90;99.90;;;;;;5067185;28;19948;-71
2022/06/07 01:47:26;;;;;;;;;;;24.00;99.90;;;;;;5063764;28;19920;-70
2022/06/07 01:49:52;;;;;;;;;;;24.00;99.90;;;;;;5060903;28;19916;-70
2022/06/07 01:52:18;;;;;;;;;;;23.90;99.90;;;;;;5082606;28;19918;-71
2022/06/07 01:54:44;;;;;;;;;;;23.90;99.90;;;;;;5058604;28;19981;-70
2022/06/07 01:57:10;;;;;;;;;;;23.90;99.90;;;;;;5062021;28;19916;-72
2022/06/07 01:59:38;;;;;;;;;;;23.90;99.90;;;;;;5058037;28;19962;-72
2022/06/07 02:02:04;;;;;;;;;;;23.90;99.90;;;;;;5064977;28;20234;-71
2022/06/07 02:04:30;;;;;;;;;;;24.00;99.90;;;;;;5060909;28;20420;-70
2022/06/07 02:06:56;;;;;;;;;;;24.00;99.90;;;;;;5067995;28;19956;-71
2022/06/07 02:09:21;;;;;;;;;;;24.00;99.90;;;;;;5069119;28;19934;-71
2022/06/07 02:11:47;;;;;;;;;;;24.00;99.90;;;;;;5068376;28;20006;-72
2022/06/07 02:14:13;;;;;;;;;;;24.00;99.90;;;;;;5065403;28;19912;-72
2022/06/07 02:16:38;;;;;;;;;;;24.10;99.90;;;;;;5071569;28;19919;-72
2022/06/07 02:19:04;;;;;;;;;;;24.00;99.90;;;;;;5067750;28;19912;-73
2022/06/07 02:21:31;;;;;;;;;;;24.00;99.90;;;;;;5064277;28;20008;-71
2022/06/07 02:23:56;;;;;;;;;;;24.00;99.90;;;;;;5086253;28;19983;-72
2022/06/07 02:26:23;;;;;;;;;;;24.00;99.90;;;;;;5061477;28;19928;-71
2022/06/07 02:28:52;;;;;;;;;;;24.00;99.90;;;;;;5057477;28;19920;-71
2022/06/07 02:31:18;;;;;;;;;;;24.00;99.90;;;;;;5062552;28;19916;-71
2022/06/07 02:33:45;;;;;;;;;;;23.80;99.90;;;;;;5085882;28;19912;-71
2022/06/07 02:36:11;;;;;;;;;;;23.80;99.90;;;;;;5059167;28;19916;-71
2022/06/07 02:38:37;;;;;;;;;;;23.80;99.90;;;;;;5061797;28;19931;-70
2022/06/07 02:41:05;;;;;;;;;;;23.80;99.90;;;;;;5059245;28;19916;-71
2022/06/07 02:43:31;;;;;;;;;;;23.80;99.90;;;;;;5063831;28;20231;-71
2022/06/07 02:45:57;;;;;;;;;;;23.80;99.90;;;;;;5058345;28;20007;-70
2022/06/07 02:48:22;;;;;;;;;;;23.80;99.90;;;;;;5067858;28;19913;-70
2022/06/07 02:50:48;;;;;;;;;;;23.80;99.90;;;;;;5055262;28;19912;-72
2022/06/07 02:53:14;;;;;;;;;;;23.80;99.90;;;;;;5084696;28;19912;-73
2022/06/07 02:55:40;;;;;;;;;;;23.80;99.90;;;;;;5067989;28;19923;-71
2022/06/07 02:58:05;;;;;;;;;;;23.80;99.90;;;;;;5059169;28;19962;-70
2022/06/07 03:00:31;;;;;;;;;;;23.80;99.90;;;;;;5067918;28;19912;-70
2022/06/07 03:02:57;;;;;;;;;;;23.70;99.90;;;;;;5070045;28;20062;-71
2022/06/07 03:05:23;;;;;;;;;;;23.70;99.90;;;;;;5070919;28;19919;-71
2022/06/07 03:07:49;;;;;;;;;;;23.70;99.90;;;;;;5068125;28;19912;-71
2022/06/07 03:10:15;;;;;;;;;;;23.70;99.90;;;;;;5065409;28;20007;-72
2022/06/07 03:12:41;;;;;;;;;;;23.70;99.90;;;;;;5084909;28;19958;-73
2022/06/07 03:15:08;;;;;;;;;;;23.70;99.90;;;;;;5087162;28;19919;-73
2022/06/07 03:17:34;;;;;;;;;;;23.70;99.90;;;;;;5085895;28;19916;-71
2022/06/07 03:20:00;;;;;;;;;;;23.60;99.90;;;;;;5065202;28;19950;-70
2022/06/07 03:22:26;;;;;;;;;;;23.50;99.90;;;;;;5072042;28;20388;-71
2022/06/07 03:24:52;;;;;;;;;;;23.50;99.90;;;;;;5070660;28;19912;-72
2022/06/07 03:27:17;;;;;;;;;;;23.50;99.90;;;;;;5065795;28;19989;-71
2022/06/07 03:29:43;;;;;;;;;;;23.40;99.90;;;;;;5087383;28;20361;-71
2022/06/07 03:32:09;;;;;;;;;;;23.20;99.90;;;;;;5066884;28;20374;-70
2022/06/07 03:34:35;;;;;;;;;;;23.20;99.90;;;;;;5059997;28;19913;-72
2022/06/07 03:37:01;;;;;;;;;;;23.10;99.90;;;;;;5053668;28;19918;-73
2022/06/07 03:39:27;;;;;;;;;;;23.10;99.90;;;;;;5084001;28;20002;-70
2022/06/07 03:41:53;;;;;;;;;;;23.00;99.90;;;;;;5057465;28;19917;-73
2022/06/07 03:44:18;;;;;;;;;;;23.00;99.90;;;;;;5078850;28;19928;-75
2022/06/07 03:46:45;;;;;;;;;;;22.90;99.90;;;;;;5077527;28;19913;-72
2022/06/07 03:49:10;;;;;;;;;;;22.90;99.90;;;;;;5062143;28;20293;-74
2022/06/07 03:51:36;;;;;;;;;;;22.80;99.90;;;;;;5080822;28;20002;-72
2022/06/07 03:54:03;;;;;;;;;;;22.90;99.90;;;;;;5062551;28;20289;-72
2022/06/07 03:56:29;;;;;;;;;;;23.00;99.90;;;;;;5062467;28;21605;-73
2022/06/07 03:58:55;;;;;;;;;;;23.10;99.90;;;;;;5053720;28;19917;-74
2022/06/07 04:01:23;;;;;;;;;;;23.10;99.90;;;;;;5057710;28;19931;-71
2022/06/07 04:03:50;;;;;;;;;;;23.30;99.90;;;;;;5057578;28;19908;-70
2022/06/07 04:06:19;;;;;;;;;;;23.50;99.90;;;;;;5067522;28;19963;-75
2022/06/07 04:08:45;;;;;;;;;;;23.60;99.90;;;;;;5067602;28;19909;-72
2022/06/07 04:11:11;;;;;;;;;;;23.70;99.90;;;;;;5065419;28;19987;-73
2022/06/07 04:13:36;;;;;;;;;;;23.70;99.90;;;;;;5079278;28;19912;-73
2022/06/07 04:16:09;;;;;;;;;;;23.80;99.90;;;;;;5066235;28;20313;-74
2022/06/07 04:18:35;;;;;;;;;;;23.90;99.90;;;;;;5088024;28;19919;-71
2022/06/07 04:21:01;;;;;;;;;;;23.80;99.90;;;;;;5064771;28;19909;-73
2022/06/07 04:23:26;;;;;;;;;;;23.80;99.90;;;;;;5064425;28;19912;-72
2022/06/07 04:25:52;;;;;;;;;;;23.80;99.90;;;;;;5060480;28;19997;-71
2022/06/07 04:28:18;;;;;;;;;;;23.70;99.90;;;;;;5059406;28;19913;-72
2022/06/07 04:30:45;;;;;;;;;;;23.60;99.90;;;;;;5079872;28;19908;-70
2022/06/07 04:33:10;;;;;;;;;;;23.70;99.90;;;;;;5066193;28;20390;-71
2022/06/07 04:35:36;;;;;;;;;;;23.80;99.90;;;;;;5069485;28;19919;-71
2022/06/07 04:38:05;;;;;;;;;;;23.80;99.90;;;;;;5065513;28;19995;-72
2022/06/07 04:40:30;;;;;;;;;;;23.80;99.90;;;;;;5064559;28;20393;-71
2022/06/07 04:42:56;;;;;;;;;;;23.70;99.90;;;;;;5068365;28;19912;-72
2022/06/07 04:45:22;;;;;;;;;;;23.90;99.90;;;;;;5074654;28;19912;-71
2022/06/07 04:47:49;;;;;;;;;;;24.00;99.90;;;;;;5063438;28;19917;-72
2022/06/07 04:50:16;;;;;;;;;;;24.10;99.90;;;;;;5063484;28;19919;-71
2022/06/07 04:52:45;;;;;;;;;;;24.40;99.90;;;;;;5072007;28;20068;-73
2022/06/07 04:55:12;;;;;;;;;;;24.40;99.90;;;;;;5071754;28;20234;-70
2022/06/07 04:57:38;;;;;;;;;;;24.40;99.90;;;;;;5067813;28;19916;-72
2022/06/07 05:00:05;;;;;;;;;;;24.40;99.90;;;;;;5071682;28;19913;-73
2022/06/07 05:02:31;;;;;;;;;;;24.50;99.90;;;;;;5088997;28;19976;-73
2022/06/07 05:04:56;;;;;;;;;;;24.50;99.90;;;;;;5069790;28;20332;-74
2022/06/07 05:07:22;;;;;;;;;;;24.40;99.90;;;;;;5093092;28;19912;-71
2022/06/07 05:09:48;;;;;;;;;;;24.40;99.90;;;;;;5086854;28;19952;-71
2022/06/07 05:12:14;;;;;;;;;;;24.50;99.90;;;;;;5074654;28;19977;-71
2022/06/07 05:14:41;;;;;;;;;;;24.60;99.90;;;;;;5079395;28;19955;-71
2022/06/07 05:17:06;;;;;;;;;;;24.60;99.90;;;;;;5073801;28;19921;-71
2022/06/07 05:19:33;;;;;;;;;;;24.60;99.90;;;;;;5064138;28;19916;-71
2022/06/07 05:22:00;;;;;;;;;;;24.60;99.90;;;;;;5068154;28;19940;-71
2022/06/07 05:24:25;;;;;;;;;;;24.60;99.90;;;;;;5084373;28;20657;-70
2022/06/07 05:26:52;;;;;;;;;;;24.70;99.90;;;;;;5061443;28;19959;-70
2022/06/07 05:29:26;;;;;;;;;;;24.80;99.90;;;;;;5073621;28;19913;-71
2022/06/07 05:31:52;;;;;;;;;;;24.90;99.90;;;;;;5074363;28;19916;-73
2022/06/07 05:34:18;;;;;;;;;;;25.00;99.90;;;;;;5072953;28;19912;-72
2022/06/07 05:36:44;;;;;;;;;;;25.20;99.90;;;;;;5064867;28;20271;-70
2022/06/07 05:39:18;;;;;;;;;;;25.40;99.90;;;;;;5066600;28;19914;-68
2022/06/07 05:41:44;;;;;;;;;;;25.60;99.90;;;;;;5074702;28;20476;-63
2022/06/07 05:44:10;;;;;;;;;;;26.00;99.90;;;;;;5064603;28;19990;-65
2022/06/07 05:46:35;;;;;;;;;;;26.30;99.90;;;;;;5070063;28;19955;-65
2022/06/07 05:49:01;;;;;;;;;;;26.20;99.90;;;;;;5066014;28;19922;-70
2022/06/07 05:51:27;;;;;;;;;;;26.20;99.90;;;;;;5061284;28;19959;-65
2022/06/07 05:53:53;;;;;;;;;;;26.10;99.90;;;;;;5067101;28;19916;-64
2022/06/07 05:56:19;;;;;;;;;;;26.10;99.90;;;;;;5072382;28;20452;-66
2022/06/07 05:58:45;;;;;;;;;;;26.00;99.90;;;;;;5074189;28;19908;-64
2022/06/07 06:01:11;;;;;;;;;;;25.90;99.90;;;;;;5073062;28;19923;-64
2022/06/07 06:03:36;;;;;;;;;;;25.60;99.90;;;;;;5061230;28;20362;-65
2022/06/07 06:06:03;;;;;;;;;;;25.60;99.90;;;;;;5062550;28;19958;-67
2022/06/07 06:11:17;;;;;;;;;;;25.70;99.90;;;;;;5082638;28;19946;-65
2022/06/07 06:13:42;;;;;;;;;;;25.70;99.90;;;;;;5072593;28;19909;-65
2022/06/07 06:16:10;;;;;;;;;;;25.60;99.90;;;;;;5071086;28;19942;-69
2022/06/07 06:18:39;;;;;;;;;;;25.60;99.90;;;;;;5065562;28;19955;-64
2022/06/07 06:21:05;;;;;;;;;;;25.80;99.90;;;;;;5080320;28;20011;-66
2022/06/07 06:23:31;;;;;;;;;;;25.90;99.90;;;;;;5063463;28;20437;-64
2022/06/07 06:25:57;;;;;;;;;;;26.00;99.90;;;;;;5064828;28;19951;-65
2022/06/07 06:28:22;;;;;;;;;;;26.10;99.90;;;;;;5073329;28;19919;-67
2022/06/07 06:30:48;;;;;;;;;;;26.20;99.90;;;;;;5059712;28;19993;-68
2022/06/07 06:33:15;;;;;;;;;;;26.20;99.90;;;;;;5058983;28;19958;-67
2022/06/07 06:35:51;;;;;;;;;;;26.10;99.90;;;;;;5072008;28;19956;-65
2022/06/07 06:38:17;;;;;;;;;;;26.00;99.90;;;;;;5054228;28;19908;-67
2022/06/07 06:40:44;;;;;;;;;;;26.00;99.90;;;;;;5060152;28;19958;-66
2022/06/07 06:43:10;;;;;;;;;;;25.90;99.90;;;;;;5068951;28;19915;-66
2022/06/07 06:45:35;;;;;;;;;;;25.90;99.90;;;;;;5070449;28;19912;-66
2022/06/07 06:48:01;;;;;;;;;;;26.00;99.90;;;;;;5077118;28;19908;-67
2022/06/07 06:50:27;;;;;;;;;;;26.20;99.90;;;;;;5079603;28;19958;-66
2022/06/07 06:52:52;;;;;;;;;;;26.30;99.90;;;;;;5068146;28;19913;-67
2022/06/07 06:55:18;;;;;;;;;;;26.20;99.90;;;;;;5076903;28;19908;-68
2022/06/07 06:57:44;;;;;;;;;;;26.30;99.90;;;;;;5069331;28;20389;-69
2022/06/07 07:00:10;;;;;;;;;;;26.50;99.90;;;;;;5067011;28;20402;-70
2022/06/07 07:02:36;;;;;;;;;;;26.50;99.90;;;;;;5060200;28;19916;-69
2022/06/07 07:05:02;;;;;;;;;;;26.40;99.90;;;;;;5058298;28;19912;-70
2022/06/07 07:07:28;;;;;;;;;;;26.30;99.90;;;;;;5072871;28;19916;-69
2022/06/07 07:09:56;;;;;;;;;;;26.50;99.90;;;;;;5071106;28;19912;-70
2022/06/07 07:12:22;;;;;;;;;;;26.50;99.90;;;;;;5067793;28;19912;-70
2022/06/07 07:14:48;;;;;;;;;;;26.60;99.90;;;;;;5060523;28;19921;-71
2022/06/07 07:17:13;;;;;;;;;;;26.60;99.90;;;;;;5071074;28;19964;-71
2022/06/07 07:19:39;;;;;;;;;;;26.70;99.90;;;;;;5089426;28;19921;-70
2022/06/07 07:22:05;;;;;;;;;;;26.90;99.90;;;;;;5061499;28;19919;-70
2022/06/07 07:24:30;;;;;;;;;;;26.80;99.90;;;;;;5071444;28;19998;-70
2022/06/07 07:26:58;;;;;;;;;;;26.80;99.90;;;;;;5072884;28;20035;-72
2022/06/07 07:29:24;;;;;;;;;;;26.80;99.90;;;;;;5071020;28;19912;-70
2022/06/07 07:31:49;;;;;;;;;;;27.00;99.90;;;;;;5067225;28;19952;-70
2022/06/07 07:34:16;;;;;;;;;;;27.40;99.90;;;;;;5070278;28;19978;-70
2022/06/07 07:36:43;;;;;;;;;;;27.40;99.90;;;;;;5058534;28;20508;-70
2022/06/07 07:39:09;;;;;;;;;;;27.40;99.90;;;;;;5053438;28;19916;-70
2022/06/07 07:41:36;;;;;;;;;;;27.50;99.90;;;;;;5061593;28;20316;-70
2022/06/07 07:44:03;;;;;;;;;;;27.60;99.90;;;;;;5078809;28;19916;-70
2022/06/07 07:46:30;;;;;;;;;;;27.70;99.90;;;;;;5069965;28;19912;-71
2022/06/07 07:48:56;;;;;;;;;;;27.70;99.90;;;;;;5072995;28;19912;-69
2022/06/07 07:51:23;;;;;;;;;;;27.80;99.90;;;;;;5083746;28;19965;-71
2022/06/07 07:53:50;;;;;;;;;;;28.10;99.90;;;;;;5064384;28;19912;-72
2022/06/07 07:56:16;;;;;;;;;;;28.40;99.90;;;;;;5087168;28;19965;-70
2022/06/07 07:58:41;;;;;;;;;;;28.30;99.90;;;;;;5064495;28;19912;-70
2022/06/07 08:01:14;;;;;;;;;;;28.30;99.90;;;;;;5060741;28;19920;-71
2022/06/07 08:03:40;;;;;;;;;;;28.40;99.90;;;;;;5054614;28;20304;-70
2022/06/07 08:06:06;;;;;;;;;;;28.40;99.90;;;;;;5076480;28;20000;-69
2022/06/07 08:08:33;;;;;;;;;;;28.40;99.90;;;;;;5067175;28;19931;-70
2022/06/07 08:10:58;;;;;;;;;;;28.40;99.90;;;;;;5065607;28;19913;-70
2022/06/07 08:13:24;;;;;;;;;;;28.20;99.90;;;;;;5083184;28;19935;-71
2022/06/07 08:15:50;;;;;;;;;;;28.10;99.90;;;;;;5086020;28;20274;-70
2022/06/07 08:18:15;;;;;;;;;;;28.10;99.90;;;;;;5058545;28;19919;-71
2022/06/07 08:20:41;;;;;;;;;;;27.90;99.90;;;;;;5064788;28;19955;-70
2022/06/07 08:23:07;;;;;;;;;;;27.70;99.90;;;;;;5063363;28;20359;-70
2022/06/07 08:25:33;;;;;;;;;;;27.40;99.90;;;;;;5058298;28;19909;-73
2022/06/07 08:28:02;;;;;;;;;;;27.40;99.90;;;;;;5072819;28;20373;-75
2022/06/07 08:30:27;;;;;;;;;;;27.40;99.90;;;;;;5071405;28;19935;-71
2022/06/07 08:32:53;;;;;;;;;;;27.30;99.90;;;;;;5091951;28;19916;-71
2022/06/07 08:38:03;;;;;;;;;;;27.60;99.90;;;;;;5085636;28;19931;-69
2022/06/07 08:40:33;;;;;;;;;;;27.50;99.90;;;;;;5069621;28;19912;-69
2022/06/07 08:42:59;;;;;;;;;;;27.60;99.90;;;;;;5062668;28;20037;-71
2022/06/07 08:45:34;;;;;;;;;;;27.80;99.90;;;;;;5074007;28;20384;-71
2022/06/07 08:48:05;;;;;;;;;;;28.10;99.90;;;;;;5073672;28;19998;-70
2022/06/07 08:50:34;;;;;;;;;;;28.30;99.90;;;;;;5071307;28;19919;-69
2022/06/07 08:53:01;;;;;;;;;;;28.30;99.90;;;;;;5071994;28;19962;-70
2022/06/07 08:55:31;;;;;;;;;;;28.50;99.90;;;;;;5069228;28;19947;-70
2022/06/07 08:57:58;;;;;;;;;;;28.50;99.90;;;;;;5068345;28;19917;-71
2022/06/07 09:00:28;;;;;;;;;;;28.40;99.90;;;;;;5071284;28;19916;-71
2022/06/07 09:03:13;;;;;;;;;;;28.30;99.90;;;;;;5074378;28;19916;-70
2022/06/07 09:05:38;;;;;;;;;;;28.30;99.90;;;;;;5075561;28;19919;-69
2022/06/07 09:08:04;;;;;;;;;;;28.10;99.90;;;;;;5074140;28;20352;-71
2022/06/07 09:13:16;;;;;;;;;;;28.10;99.90;;;;;;5086034;28;19931;-70
2022/06/07 09:15:42;;;;;;;;;;;28.10;99.90;;;;;;5071915;28;19913;-72
2022/06/07 09:18:13;;;;;;;;;;;28.20;99.90;;;;;;5077918;28;19994;-71
2022/06/07 09:20:59;;;;;;;;;;;28.20;99.90;;;;;;5072251;28;20358;-73
2022/06/07 09:23:31;;;;;;;;;;;28.10;99.90;;;;;;5069629;28;20282;-72
2022/06/07 09:25:58;;;;;;;;;;;28.20;99.90;;;;;;5070900;28;19916;-71
2022/06/07 09:28:29;;;;;;;;;;;28.30;99.90;;;;;;5068481;28;19956;-71
2022/06/07 09:31:06;;;;;;;;;;;28.40;99.90;;;;;;5067960;28;19919;-73
2022/06/07 09:33:52;;;;;;;;;;;28.60;99.90;;;;;;5066745;28;19912;-72
2022/06/07 09:36:25;;;;;;;;;;;28.50;99.90;;;;;;5070323;28;19912;-71
2022/06/07 09:38:55;;;;;;;;;;;28.50;99.90;;;;;;5086350;28;19913;-72
2022/06/07 09:41:40;;;;;;;;;;;28.30;99.90;;;;;;5074613;28;19973;-72
2022/06/07 09:44:15;;;;;;;;;;;28.20;99.90;;;;;;5073631;28;19912;-72
2022/06/07 09:46:47;;;;;;;;;;;28.40;99.90;;;;;;5070647;28;19912;-72
2022/06/07 09:49:24;;;;;;;;;;;28.40;99.90;;;;;;5066321;28;19980;-71
2022/06/07 09:51:50;;;;;;;;;;;28.40;99.90;;;;;;5071843;28;20014;-72
2022/06/07 09:54:17;;;;;;;;;;;28.20;99.90;;;;;;5064404;28;19912;-71
2022/06/07 09:56:43;;;;;;;;;;;28.10;99.90;;;;;;5063167;28;19913;-72
2022/06/07 09:59:27;;;;;;;;;;;27.70;99.90;;;;;;5060368;28;19934;-72
2022/06/07 10:01:55;;;;;;;;;;;27.60;99.90;;;;;;5070631;28;19947;-71
2022/06/07 10:04:29;;;;;;;;;;;27.40;99.90;;;;;;5056714;28;19908;-71
2022/06/07 10:07:04;;;;;;;;;;;27.20;99.90;;;;;;5066660;28;19947;-72
2022/06/07 10:09:30;;;;;;;;;;;27.30;99.90;;;;;;5089999;28;19912;-71
2022/06/07 10:12:04;;;;;;;;;;;27.50;99.90;;;;;;5073823;28;19922;-72
2022/06/07 10:14:50;;;;;;;;;;;27.40;99.90;;;;;;5069838;28;20339;-71
2022/06/07 10:17:35;;;;;;;;;;;27.20;99.90;;;;;;5054189;28;20019;-72
2022/06/07 10:20:27;;;;;;;;;;;27.10;99.90;;;;;;5067193;28;19914;-72
2022/06/07 10:23:05;;;;;;;;;;;27.10;99.90;;;;;;5039284;28;19916;-72
2022/06/07 10:25:43;;;;;;;;;;;27.20;99.90;;;;;;5070649;28;19951;-72
2022/06/07 10:28:17;;;;;;;;;;;27.40;99.90;;;;;;5070990;28;20008;-71
2022/06/07 10:30:52;;;;;;;;;;;27.60;99.90;;;;;;5068010;28;20416;-71
2022/06/07 10:33:31;;;;;;;;;;;27.80;99.90;;;;;;5065205;28;19913;-71
2022/06/07 10:36:03;;;;;;;;;;;27.60;99.90;;;;;;5072529;28;20049;-72
2022/06/07 10:38:38;;;;;;;;;;;27.70;99.90;;;;;;5054128;28;19974;-73
2022/06/07 10:41:09;;;;;;;;;;;27.60;99.90;;;;;;5066563;28;19915;-72
2022/06/07 10:43:44;;;;;;;;;;;27.50;99.90;;;;;;5077471;28;19909;-71
2022/06/07 10:46:11;;;;;;;;;;;27.40;99.90;;;;;;5088906;28;19917;-71
2022/06/07 10:48:40;;;;;;;;;;;27.30;99.90;;;;;;5106105;28;19908;-70
2022/06/07 10:52:20;;;;;;;;;;;27.40;99.90;;;;;;5083997;28;20122;-72
2022/06/07 10:54:01;;;;;;;;;;;27.50;99.90;;;;;;5071577;28;19944;-71
2022/06/07 10:56:33;;;;;;;;;;;27.50;99.90;;;;;;5077401;28;19974;-72
2022/06/07 10:59:01;;;;;;;;;;;27.70;99.90;;;;;;5074599;28;19897;-71
2022/06/07 11:01:35;;;;;;;;;;;27.70;99.90;;;;;;5096318;28;19916;-71
2022/06/07 11:04:07;;;;;;;;;;;27.60;99.90;;;;;;5084479;28;19908;-73
2022/06/07 11:09:26;;;;;;;;;;;27.10;99.90;;;;;;5072940;28;19915;-72
2022/06/07 11:12:02;;;;;;;;;;;26.90;99.90;;;;;;5088252;28;19919;-72
2022/06/07 11:14:43;;;;;;;;;;;27.10;99.90;;;;;;5071123;28;19914;-72
2022/06/07 11:17:21;;;;;;;;;;;27.00;99.90;;;;;;5065564;28;19951;-74
2022/06/07 11:19:46;;;;;;;;;;;27.10;99.90;;;;;;5058741;28;19927;-73
2022/06/07 11:22:14;;;;;;;;;;;27.10;99.90;;;;;;5058046;28;19913;-73
2022/06/07 11:24:59;;;;;;;;;;;27.30;99.90;;;;;;5065542;28;19938;-73
2022/06/07 11:27:26;;;;;;;;;;;27.50;99.90;;;;;;5085373;28;20007;-73
2022/06/07 11:30:10;;;;;;;;;;;27.60;99.90;;;;;;5066510;28;19938;-73
2022/06/07 11:32:50;;;;;;;;;;;27.60;99.90;;;;;;5072530;28;19927;-71
2022/06/07 11:35:35;;;;;;;;;;;27.70;99.90;;;;;;5071197;28;19913;-73
2022/06/07 11:38:11;;;;;;;;;;;27.80;99.90;;;;;;5063134;28;20386;-73
2022/06/07 11:40:40;;;;;;;;;;;28.20;99.90;;;;;;5068342;28;19962;-73
2022/06/07 11:43:26;;;;;;;;;;;28.60;99.90;;;;;;5067939;28;19997;-73
2022/06/07 11:45:53;;;;;;;;;;;28.70;99.90;;;;;;5079907;28;19924;-73
2022/06/07 11:48:23;;;;;;;;;;;28.60;99.90;;;;;;5071964;28;19912;-73
2022/06/07 11:50:58;;;;;;;;;;;28.40;99.90;;;;;;5066168;28;20300;-73
2022/06/07 11:53:28;;;;;;;;;;;28.40;99.90;;;;;;5061746;28;19912;-74
2022/06/07 11:56:14;;;;;;;;;;;28.30;99.90;;;;;;5065229;28;19919;-75
2022/06/07 11:58:50;;;;;;;;;;;28.20;99.90;;;;;;5066447;28;19959;-74
2022/06/07 12:01:24;;;;;;;;;;;28.20;99.90;;;;;;5071982;28;19935;-73
2022/06/07 12:04:06;;;;;;;;;;;28.10;99.90;;;;;;5066310;28;20015;-71
2022/06/07 12:06:32;;;;;;;;;;;28.30;99.90;;;;;;5066702;28;19973;-71
2022/06/07 12:09:03;;;;;;;;;;;28.60;99.90;;;;;;5068207;28;19912;-69
2022/06/07 12:11:32;;;;;;;;;;;28.80;99.90;;;;;;5070696;28;19912;-71
2022/06/07 12:14:18;;;;;;;;;;;29.10;99.90;;;;;;5056467;28;19908;-70
2022/06/07 12:16:44;;;;;;;;;;;29.30;99.90;;;;;;5059348;28;19917;-71
2022/06/07 12:19:21;;;;;;;;;;;29.30;99.90;;;;;;5069552;28;19917;-71
2022/06/07 12:21:55;;;;;;;;;;;29.30;99.90;;;;;;5055402;28;19912;-71
2022/06/07 12:24:21;;;;;;;;;;;29.10;99.90;;;;;;5053089;28;19977;-70
2022/06/07 12:26:47;;;;;;;;;;;29.10;99.90;;;;;;5059677;28;20366;-70
2022/06/07 12:29:29;;;;;;;;;;;29.20;99.90;;;;;;5066135;28;19923;-70
2022/06/07 12:31:56;;;;;;;;;;;29.10;99.90;;;;;;5078140;28;19927;-70
2022/06/07 12:34:26;;;;;;;;;;;29.20;99.90;;;;;;5054008;28;19908;-70
2022/06/07 12:36:57;;;;;;;;;;;29.40;99.90;;;;;;5065927;28;19917;-70
2022/06/07 12:39:24;;;;;;;;;;;29.40;99.90;;;;;;5066243;28;19912;-70
2022/06/07 12:41:52;;;;;;;;;;;29.50;99.90;;;;;;5068270;28;20404;-70
2022/06/07 12:44:41;;;;;;;;;;;29.30;99.90;;;;;;5070133;28;19917;-72
2022/06/07 12:47:19;;;;;;;;;;;29.10;99.90;;;;;;5072182;28;20068;-70
2022/06/07 12:49:46;;;;;;;;;;;28.80;99.90;;;;;;5063465;28;19973;-70
2022/06/07 12:52:20;;;;;;;;;;;28.60;99.90;;;;;;5069644;28;20262;-70
2022/06/07 12:54:51;;;;;;;;;;;28.80;99.90;;;;;;5064769;28;19943;-71
2022/06/07 12:57:23;;;;;;;;;;;28.90;99.90;;;;;;5069027;28;19920;-69
2022/06/07 13:00:00;;;;;;;;;;;28.90;99.90;;;;;;5059030;28;19951;-71
2022/06/07 13:02:32;;;;;;;;;;;29.00;99.90;;;;;;5066639;28;20293;-70
2022/06/07 13:05:01;;;;;;;;;;;29.30;99.90;;;;;;5074246;28;19976;-70
2022/06/07 13:07:31;;;;;;;;;;;29.40;99.90;;;;;;5059613;28;19912;-70
2022/06/07 13:09:58;;;;;;;;;;;29.50;99.90;;;;;;5070384;28;20246;-70
2022/06/07 13:12:27;;;;;;;;;;;29.50;99.90;;;;;;5055144;28;19908;-71
2022/06/07 13:14:52;;;;;;;;;;;29.90;99.90;;;;;;5074247;28;19984;-71
2022/06/07 13:17:27;;;;;;;;;;;30.20;99.90;;;;;;5075243;28;20366;-71
2022/06/07 13:19:53;;;;;;;;;;;30.20;99.90;;;;;;5074744;28;19908;-71
2022/06/07 13:22:19;;;;;;;;;;;30.00;99.90;;;;;;5056059;28;19916;-71
2022/06/07 13:24:47;;;;;;;;;;;29.90;99.90;;;;;;5070252;28;19947;-70
2022/06/07 13:27:25;;;;;;;;;;;29.80;99.90;;;;;;5062188;28;19928;-71
2022/06/07 13:29:50;;;;;;;;;;;29.30;99.90;;;;;;5068291;28;20321;-69
2022/06/07 13:32:21;;;;;;;;;;;29.00;99.90;;;;;;5060839;28;19921;-72
2022/06/07 13:34:54;;;;;;;;;;;28.80;99.90;;;;;;5069297;28;19912;-71
2022/06/07 13:37:22;;;;;;;;;;;28.60;99.90;;;;;;5066277;28;20027;-70
2022/06/07 13:39:58;;;;;;;;;;;28.60;99.90;;;;;;5058001;28;19919;-70
2022/06/07 13:42:44;;;;;;;;;;;28.70;99.90;;;;;;5069669;28;19977;-70
2022/06/07 13:45:13;;;;;;;;;;;28.80;99.90;;;;;;5071652;28;19912;-71
2022/06/07 13:47:45;;;;;;;;;;;28.70;99.90;;;;;;5059531;28;20358;-71
2022/06/07 13:53:21;;;;;;;;;;;28.90;99.90;;;;;;5092626;28;19962;-70
2022/06/07 13:55:47;;;;;;;;;;;28.80;99.90;;;;;;5069834;28;20004;-70
2022/06/07 13:58:14;;;;;;;;;;;28.80;99.90;;;;;;5071066;28;20058;-70
2022/06/07 14:00:41;;;;;;;;;;;28.70;99.90;;;;;;5066184;28;20006;-70
2022/06/07 14:03:15;;;;;;;;;;;28.50;99.90;;;;;;5068797;28;19916;-69
2022/06/07 14:05:41;;;;;;;;;;;28.50;99.90;;;;;;5066780;28;19909;-70
2022/06/07 14:08:11;;;;;;;;;;;28.50;99.90;;;;;;5070357;28;19913;-69
2022/06/07 14:10:37;;;;;;;;;;;28.60;99.90;;;;;;5072515;28;19912;-69
2022/06/07 14:13:03;;;;;;;;;;;28.40;99.90;;;;;;5068913;28;19924;-69
2022/06/07 14:15:29;;;;;;;;;;;28.10;99.90;;;;;;5070978;28;19928;-69
2022/06/07 14:17:55;;;;;;;;;;;28.10;99.90;;;;;;5071499;28;19916;-69
2022/06/07 14:20:22;;;;;;;;;;;28.40;99.90;;;;;;5072280;28;19920;-69
2022/06/07 14:22:49;;;;;;;;;;;28.60;99.90;;;;;;5076968;28;19912;-70
2022/06/07 14:25:16;;;;;;;;;;;28.20;99.90;;;;;;5074840;28;19961;-68
2022/06/07 14:27:42;;;;;;;;;;;27.80;99.90;;;;;;5069999;28;19924;-70
2022/06/07 14:30:08;;;;;;;;;;;27.50;99.90;;;;;;5064757;28;19912;-70
2022/06/07 14:32:44;;;;;;;;;;;27.50;99.90;;;;;;5070062;28;20416;-70
2022/06/07 14:35:20;;;;;;;;;;;27.80;99.90;;;;;;5087949;28;20238;-68
2022/06/07 14:37:54;;;;;;;;;;;27.70;99.90;;;;;;5063757;28;19988;-70
2022/06/07 14:40:23;;;;;;;;;;;27.40;99.90;;;;;;5073705;28;19919;-69
2022/06/07 14:42:49;;;;;;;;;;;27.10;99.90;;;;;;5066211;28;19909;-70
2022/06/07 14:45:16;;;;;;;;;;;27.20;99.90;;;;;;5057278;28;19912;-69
2022/06/07 14:47:43;;;;;;;;;;;27.30;99.90;;;;;;5064075;28;20289;-70